sensor_id;sensor_type;location;lat;lon;timestamp;noise_LAeq;noise_LA_min;noise_LA_max;noise_LA01;noise_LA95
49568;Laerm;35474;51.032;6.998;2023-05-07T00:00:35;51.44;42.71;67.03;;
49568;Laerm;35474;51.032;6.998;2023-05-07T00:03:02;55.68;43.04;68.11;;
49568;Laerm;35474;51.032;6.998;2023-05-07T00:05:29;58.30;43.04;68.05;;
49568;Laerm;35474;51.032;6.998;2023-05-07T00:07:56;60.37;42.93;70.30;;
49568;Laerm;35474;51.032;6.998;2023-05-07T00:10:25;59.39;43.81;69.00;;
49568;Laerm;35474;51.032;6.998;2023-05-07T00:12:52;54.24;43.72;66.65;;
49568;Laerm;35474;51.032;6.998;2023-05-07T00:15:18;61.36;43.14;75.66;;
49568;Laerm;35474;51.032;6.998;2023-05-07T00:17:45;56.13;42.82;66.77;;
49568;Laerm;35474;51.032;6.998;2023-05-07T00:20:12;58.32;43.24;70.96;;
49568;Laerm;35474;51.032;6.998;2023-05-07T00:22:38;53.38;43.24;69.06;;
49568;Laerm;35474;51.032;6.998;2023-05-07T00:25:05;54.86;42.59;67.56;;
49568;Laerm;35474;51.032;6.998;2023-05-07T00:27:32;62.51;42.82;78.37;;
49568;Laerm;35474;51.032;6.998;2023-05-07T00:29:58;56.46;42.98;69.61;;
49568;Laerm;35474;51.032;6.998;2023-05-07T00:32:24;53.50;42.76;65.11;;
49568;Laerm;35474;51.032;6.998;2023-05-07T00:34:51;57.33;43.14;69.05;;
49568;Laerm;35474;51.032;6.998;2023-05-07T00:37:17;54.07;42.29;64.83;;
49568;Laerm;35474;51.032;6.998;2023-05-07T00:39:44;53.99;42.35;65.79;;
49568;Laerm;35474;51.032;6.998;2023-05-07T00:42:10;47.96;42.93;64.68;;
49568;Laerm;35474;51.032;6.998;2023-05-07T00:44:37;50.88;43.63;64.48;;
49568;Laerm;35474;51.032;6.998;2023-05-07T00:47:04;55.74;42.47;68.83;;
49568;Laerm;35474;51.032;6.998;2023-05-07T00:49:38;52.64;42.47;68.17;;
49568;Laerm;35474;51.032;6.998;2023-05-07T00:52:06;49.54;42.59;65.49;;
49568;Laerm;35474;51.032;6.998;2023-05-07T00:54:34;55.19;43.24;67.49;;
49568;Laerm;35474;51.032;6.998;2023-05-07T00:57:02;57.75;43.34;68.86;;
49568;Laerm;35474;51.032;6.998;2023-05-07T00:59:31;46.46;43.14;56.06;;
49568;Laerm;35474;51.032;6.998;2023-05-07T01:01:58;53.06;42.29;75.51;;
49568;Laerm;35474;51.032;6.998;2023-05-07T01:04:25;55.53;43.24;66.54;;
49568;Laerm;35474;51.032;6.998;2023-05-07T01:06:54;53.58;43.94;72.46;;
49568;Laerm;35474;51.032;6.998;2023-05-07T01:09:24;50.05;43.72;61.12;;
49568;Laerm;35474;51.032;6.998;2023-05-07T01:11:52;55.94;45.20;67.03;;
49568;Laerm;35474;51.032;6.998;2023-05-07T01:14:19;49.52;43.24;59.50;;
49568;Laerm;35474;51.032;6.998;2023-05-07T01:16:47;47.51;43.33;58.93;;
49568;Laerm;35474;51.032;6.998;2023-05-07T01:19:17;52.99;43.34;67.07;;
49568;Laerm;35474;51.032;6.998;2023-05-07T01:21:46;56.54;42.71;69.22;;
49568;Laerm;35474;51.032;6.998;2023-05-07T01:24:14;47.47;42.65;63.23;;
49568;Laerm;35474;51.032;6.998;2023-05-07T01:26:42;54.65;43.49;69.96;;
49568;Laerm;35474;51.032;6.998;2023-05-07T01:29:09;56.56;42.98;67.98;;
49568;Laerm;35474;51.032;6.998;2023-05-07T01:31:41;53.76;42.41;64.56;;
49568;Laerm;35474;51.032;6.998;2023-05-07T01:34:11;58.06;43.49;70.99;;
49568;Laerm;35474;51.032;6.998;2023-05-07T01:36:39;49.58;43.09;62.07;;
49568;Laerm;35474;51.032;6.998;2023-05-07T01:39:08;46.57;43.04;54.31;;
49568;Laerm;35474;51.032;6.998;2023-05-07T01:41:35;44.74;41.38;54.65;;
49568;Laerm;35474;51.032;6.998;2023-05-07T01:44:03;44.66;41.96;48.76;;
49568;Laerm;35474;51.032;6.998;2023-05-07T01:46:31;45.34;42.16;50.74;;
49568;Laerm;35474;51.032;6.998;2023-05-07T01:48:58;54.40;42.47;65.66;;
49568;Laerm;35474;51.032;6.998;2023-05-07T01:51:24;52.77;42.88;67.81;;
49568;Laerm;35474;51.032;6.998;2023-05-07T01:53:52;52.22;42.65;65.83;;
49568;Laerm;35474;51.032;6.998;2023-05-07T01:56:19;53.07;43.09;67.86;;
49568;Laerm;35474;51.032;6.998;2023-05-07T01:58:46;50.41;42.03;62.83;;
49568;Laerm;35474;51.032;6.998;2023-05-07T02:01:13;57.56;42.47;68.25;;
49568;Laerm;35474;51.032;6.998;2023-05-07T02:03:42;53.03;42.76;66.42;;
49568;Laerm;35474;51.032;6.998;2023-05-07T02:06:09;54.26;43.09;67.14;;
49568;Laerm;35474;51.032;6.998;2023-05-07T02:08:35;53.43;43.24;67.01;;
49568;Laerm;35474;51.032;6.998;2023-05-07T02:11:04;56.99;42.93;72.97;;
49568;Laerm;35474;51.032;6.998;2023-05-07T02:13:33;55.86;43.39;67.46;;
49568;Laerm;35474;51.032;6.998;2023-05-07T02:16:01;55.08;42.88;69.28;;
49568;Laerm;35474;51.032;6.998;2023-05-07T02:18:28;54.27;42.53;68.02;;
49568;Laerm;35474;51.032;6.998;2023-05-07T02:20:55;57.51;43.24;73.98;;
49568;Laerm;35474;51.032;6.998;2023-05-07T02:23:21;56.85;41.96;70.46;;
49568;Laerm;35474;51.032;6.998;2023-05-07T02:25:48;54.71;43.34;65.10;;
49568;Laerm;35474;51.032;6.998;2023-05-07T02:28:14;46.44;43.04;55.19;;
49568;Laerm;35474;51.032;6.998;2023-05-07T02:30:41;51.45;43.94;63.91;;
49568;Laerm;35474;51.032;6.998;2023-05-07T02:33:10;55.48;42.16;68.50;;
49568;Laerm;35474;51.032;6.998;2023-05-07T02:35:38;51.70;42.65;64.76;;
49568;Laerm;35474;51.032;6.998;2023-05-07T02:38:05;53.99;42.76;68.11;;
49568;Laerm;35474;51.032;6.998;2023-05-07T02:40:32;52.87;42.71;67.64;;
49568;Laerm;35474;51.032;6.998;2023-05-07T02:42:59;54.09;44.03;70.14;;
49568;Laerm;35474;51.032;6.998;2023-05-07T02:45:28;54.66;43.68;67.37;;
49568;Laerm;35474;51.032;6.998;2023-05-07T02:47:55;56.64;43.81;68.75;;
49568;Laerm;35474;51.032;6.998;2023-05-07T02:50:22;57.09;43.09;71.99;;
49568;Laerm;35474;51.032;6.998;2023-05-07T02:52:48;55.18;43.72;65.77;;
49568;Laerm;35474;51.032;6.998;2023-05-07T02:55:15;56.74;43.19;70.29;;
49568;Laerm;35474;51.032;6.998;2023-05-07T02:57:41;54.25;43.24;66.02;;
49568;Laerm;35474;51.032;6.998;2023-05-07T03:00:16;55.66;43.72;67.61;;
49568;Laerm;35474;51.032;6.998;2023-05-07T03:02:46;53.64;43.19;67.23;;
49568;Laerm;35474;51.032;6.998;2023-05-07T03:05:13;56.01;43.44;69.05;;
49568;Laerm;35474;51.032;6.998;2023-05-07T03:07:40;57.26;43.29;70.55;;
49568;Laerm;35474;51.032;6.998;2023-05-07T03:10:10;57.24;44.47;68.04;;
49568;Laerm;35474;51.032;6.998;2023-05-07T03:12:37;57.18;44.51;68.02;;
49568;Laerm;35474;51.032;6.998;2023-05-07T03:15:04;55.43;44.39;66.02;;
49568;Laerm;35474;51.032;6.998;2023-05-07T03:17:31;47.30;43.34;56.19;;
49568;Laerm;35474;51.032;6.998;2023-05-07T03:19:57;47.68;43.49;55.32;;
49568;Laerm;35474;51.032;6.998;2023-05-07T03:22:24;52.78;43.94;66.63;;
49568;Laerm;35474;51.032;6.998;2023-05-07T03:24:50;58.58;44.83;75.47;;
49568;Laerm;35474;51.032;6.998;2023-05-07T03:27:17;57.56;45.27;70.58;;
49568;Laerm;35474;51.032;6.998;2023-05-07T03:29:43;51.87;44.58;62.78;;
49568;Laerm;35474;51.032;6.998;2023-05-07T03:32:10;55.25;44.69;69.84;;
49568;Laerm;35474;51.032;6.998;2023-05-07T03:34:36;55.29;44.69;67.08;;
49568;Laerm;35474;51.032;6.998;2023-05-07T03:37:03;54.02;44.73;66.04;;
49568;Laerm;35474;51.032;6.998;2023-05-07T03:39:30;57.76;44.69;70.81;;
49568;Laerm;35474;51.032;6.998;2023-05-07T03:41:57;55.95;45.07;64.58;;
49568;Laerm;35474;51.032;6.998;2023-05-07T03:44:24;57.46;44.43;68.68;;
49568;Laerm;35474;51.032;6.998;2023-05-07T03:46:50;54.08;44.27;69.20;;
49568;Laerm;35474;51.032;6.998;2023-05-07T03:49:17;50.84;44.31;63.58;;
49568;Laerm;35474;51.032;6.998;2023-05-07T03:51:43;53.80;44.23;67.05;;
49568;Laerm;35474;51.032;6.998;2023-05-07T03:54:11;56.56;43.60;70.06;;
49568;Laerm;35474;51.032;6.998;2023-05-07T03:56:39;55.08;43.19;71.84;;
49568;Laerm;35474;51.032;6.998;2023-05-07T03:59:05;55.79;43.04;66.29;;
49568;Laerm;35474;51.032;6.998;2023-05-07T04:01:32;57.83;43.44;71.96;;
49568;Laerm;35474;51.032;6.998;2023-05-07T04:03:58;52.01;44.03;65.01;;
49568;Laerm;35474;51.032;6.998;2023-05-07T04:06:25;57.29;43.34;72.05;;
49568;Laerm;35474;51.032;6.998;2023-05-07T04:08:51;55.03;43.64;65.95;;
49568;Laerm;35474;51.032;6.998;2023-05-07T04:11:18;56.15;44.19;69.16;;
49568;Laerm;35474;51.032;6.998;2023-05-07T04:13:44;55.89;43.81;68.27;;
49568;Laerm;35474;51.032;6.998;2023-05-07T04:16:11;56.28;44.83;68.01;;
49568;Laerm;35474;51.032;6.998;2023-05-07T04:18:37;53.42;44.54;67.55;;
49568;Laerm;35474;51.032;6.998;2023-05-07T04:21:04;58.41;44.54;73.06;;
49568;Laerm;35474;51.032;6.998;2023-05-07T04:23:31;53.72;44.65;68.23;;
49568;Laerm;35474;51.032;6.998;2023-05-07T04:25:57;56.74;44.65;70.01;;
49568;Laerm;35474;51.032;6.998;2023-05-07T04:28:27;57.19;43.90;74.87;;
49568;Laerm;35474;51.032;6.998;2023-05-07T04:30:55;46.94;43.90;55.77;;
49568;Laerm;35474;51.032;6.998;2023-05-07T04:33:24;53.52;44.19;65.73;;
49568;Laerm;35474;51.032;6.998;2023-05-07T04:35:56;56.11;43.81;68.57;;
49568;Laerm;35474;51.032;6.998;2023-05-07T04:38:22;52.88;43.72;71.20;;
49568;Laerm;35474;51.032;6.998;2023-05-07T04:40:52;52.10;44.23;66.31;;
49568;Laerm;35474;51.032;6.998;2023-05-07T04:43:20;52.19;44.51;64.99;;
49568;Laerm;35474;51.032;6.998;2023-05-07T04:45:46;49.70;44.62;64.01;;
49568;Laerm;35474;51.032;6.998;2023-05-07T04:48:13;57.74;45.01;69.48;;
49568;Laerm;35474;51.032;6.998;2023-05-07T04:50:47;56.03;44.94;69.03;;
49568;Laerm;35474;51.032;6.998;2023-05-07T04:53:13;52.84;43.39;69.50;;
49568;Laerm;35474;51.032;6.998;2023-05-07T04:55:40;55.37;44.23;69.22;;
49568;Laerm;35474;51.032;6.998;2023-05-07T04:58:07;52.14;44.11;64.98;;
49568;Laerm;35474;51.032;6.998;2023-05-07T05:00:33;56.16;43.72;67.61;;
49568;Laerm;35474;51.032;6.998;2023-05-07T05:03:00;53.67;44.76;65.81;;
49568;Laerm;35474;51.032;6.998;2023-05-07T05:05:27;59.21;45.01;71.86;;
49568;Laerm;35474;51.032;6.998;2023-05-07T05:07:53;57.96;44.69;71.79;;
49568;Laerm;35474;51.032;6.998;2023-05-07T05:10:22;55.45;44.76;67.49;;
49568;Laerm;35474;51.032;6.998;2023-05-07T05:12:50;58.29;45.33;70.26;;
49568;Laerm;35474;51.032;6.998;2023-05-07T05:15:18;55.56;44.03;69.48;;
49568;Laerm;35474;51.032;6.998;2023-05-07T05:17:45;55.16;44.31;67.37;;
49568;Laerm;35474;51.032;6.998;2023-05-07T05:20:11;55.15;44.47;64.95;;
49568;Laerm;35474;51.032;6.998;2023-05-07T05:22:38;54.84;44.35;65.70;;
49568;Laerm;35474;51.032;6.998;2023-05-07T05:25:06;55.15;43.72;66.39;;
49568;Laerm;35474;51.032;6.998;2023-05-07T05:27:34;56.34;43.90;70.68;;
49568;Laerm;35474;51.032;6.998;2023-05-07T05:30:01;54.31;44.47;65.53;;
49568;Laerm;35474;51.032;6.998;2023-05-07T05:32:27;61.82;46.05;75.73;;
49568;Laerm;35474;51.032;6.998;2023-05-07T05:34:55;55.73;45.30;65.34;;
49568;Laerm;35474;51.032;6.998;2023-05-07T05:37:22;57.77;45.20;69.38;;
49568;Laerm;35474;51.032;6.998;2023-05-07T05:39:49;56.70;44.51;70.15;;
49568;Laerm;35474;51.032;6.998;2023-05-07T05:42:15;56.75;45.33;67.79;;
49568;Laerm;35474;51.032;6.998;2023-05-07T05:44:44;55.84;44.23;71.38;;
49568;Laerm;35474;51.032;6.998;2023-05-07T05:47:13;56.72;44.54;66.40;;
49568;Laerm;35474;51.032;6.998;2023-05-07T05:52:45;51.93;43.24;66.00;;
49568;Laerm;35474;51.032;6.998;2023-05-07T05:55:12;58.06;45.14;68.67;;
49568;Laerm;35474;51.032;6.998;2023-05-07T05:57:38;57.09;44.69;70.88;;
49568;Laerm;35474;51.032;6.998;2023-05-07T06:00:06;60.61;45.33;70.98;;
49568;Laerm;35474;51.032;6.998;2023-05-07T06:02:32;55.55;44.23;66.47;;
49568;Laerm;35474;51.032;6.998;2023-05-07T06:04:59;54.58;44.54;66.32;;
49568;Laerm;35474;51.032;6.998;2023-05-07T06:07:25;56.70;44.27;69.63;;
49568;Laerm;35474;51.032;6.998;2023-05-07T06:09:52;56.10;44.03;72.85;;
49568;Laerm;35474;51.032;6.998;2023-05-07T06:12:18;62.02;44.15;77.58;;
49568;Laerm;35474;51.032;6.998;2023-05-07T06:14:44;56.39;44.69;68.38;;
49568;Laerm;35474;51.032;6.998;2023-05-07T06:17:11;56.94;43.99;66.37;;
49568;Laerm;35474;51.032;6.998;2023-05-07T06:19:37;55.41;44.54;66.10;;
49568;Laerm;35474;51.032;6.998;2023-05-07T06:22:05;58.38;43.81;70.54;;
49568;Laerm;35474;51.032;6.998;2023-05-07T06:24:32;59.42;43.90;69.54;;
49568;Laerm;35474;51.032;6.998;2023-05-07T06:26:58;56.42;44.07;71.16;;
49568;Laerm;35474;51.032;6.998;2023-05-07T06:32:34;60.91;43.94;71.57;;
49568;Laerm;35474;51.032;6.998;2023-05-07T06:35:01;60.02;43.81;68.76;;
49568;Laerm;35474;51.032;6.998;2023-05-07T06:37:28;63.09;43.58;76.28;;
49568;Laerm;35474;51.032;6.998;2023-05-07T06:39:54;60.69;44.03;71.58;;
49568;Laerm;35474;51.032;6.998;2023-05-07T06:42:23;58.11;43.86;68.03;;
49568;Laerm;35474;51.032;6.998;2023-05-07T06:44:50;56.53;43.63;69.90;;
49568;Laerm;35474;51.032;6.998;2023-05-07T06:47:17;62.28;43.09;71.01;;
49568;Laerm;35474;51.032;6.998;2023-05-07T06:49:43;59.47;44.03;71.01;;
49568;Laerm;35474;51.032;6.998;2023-05-07T06:52:10;61.48;44.23;72.79;;
49568;Laerm;35474;51.032;6.998;2023-05-07T06:54:37;62.10;43.37;72.25;;
49568;Laerm;35474;51.032;6.998;2023-05-07T06:57:04;56.12;43.14;66.76;;
49568;Laerm;35474;51.032;6.998;2023-05-07T06:59:30;60.12;42.59;70.41;;
49568;Laerm;35474;51.032;6.998;2023-05-07T07:01:57;60.41;43.68;78.01;;
49568;Laerm;35474;51.032;6.998;2023-05-07T07:04:23;60.03;42.71;71.10;;
49568;Laerm;35474;51.032;6.998;2023-05-07T07:06:52;61.77;43.49;73.15;;
49568;Laerm;35474;51.032;6.998;2023-05-07T07:09:18;56.97;43.34;67.55;;
49568;Laerm;35474;51.032;6.998;2023-05-07T07:11:48;59.59;42.47;76.72;;
49568;Laerm;35474;51.032;6.998;2023-05-07T07:14:14;56.79;41.30;68.87;;
49568;Laerm;35474;51.032;6.998;2023-05-07T07:16:41;56.05;42.35;68.79;;
49568;Laerm;35474;51.032;6.998;2023-05-07T07:19:07;58.22;42.22;69.35;;
49568;Laerm;35474;51.032;6.998;2023-05-07T07:21:34;58.17;42.59;74.10;;
49568;Laerm;35474;51.032;6.998;2023-05-07T07:24:01;60.46;40.62;84.22;;
49568;Laerm;35474;51.032;6.998;2023-05-07T07:26:27;60.29;44.47;75.33;;
49568;Laerm;35474;51.032;6.998;2023-05-07T07:28:53;58.60;42.09;69.13;;
49568;Laerm;35474;51.032;6.998;2023-05-07T07:31:20;59.30;43.39;69.35;;
49568;Laerm;35474;51.032;6.998;2023-05-07T07:33:47;59.70;43.63;79.62;;
49568;Laerm;35474;51.032;6.998;2023-05-07T07:36:13;65.44;41.96;88.45;;
49568;Laerm;35474;51.032;6.998;2023-05-07T07:38:40;62.29;44.07;80.34;;
49568;Laerm;35474;51.032;6.998;2023-05-07T07:41:08;64.03;44.19;84.25;;
49568;Laerm;35474;51.032;6.998;2023-05-07T07:43:34;61.66;43.39;77.96;;
49568;Laerm;35474;51.032;6.998;2023-05-07T07:46:02;61.01;44.07;71.58;;
49568;Laerm;35474;51.032;6.998;2023-05-07T07:48:28;64.69;46.78;83.01;;
49568;Laerm;35474;51.032;6.998;2023-05-07T07:50:55;63.15;47.48;76.82;;
49568;Laerm;35474;51.032;6.998;2023-05-07T07:53:21;63.48;44.90;76.97;;
49568;Laerm;35474;51.032;6.998;2023-05-07T07:55:48;63.05;48.52;71.41;;
49568;Laerm;35474;51.032;6.998;2023-05-07T07:58:14;60.99;42.29;71.78;;
49568;Laerm;35474;51.032;6.998;2023-05-07T08:00:41;62.83;43.04;73.85;;
49568;Laerm;35474;51.032;6.998;2023-05-07T08:03:10;63.78;43.63;88.43;;
49568;Laerm;35474;51.032;6.998;2023-05-07T08:05:37;63.06;44.23;70.51;;
49568;Laerm;35474;51.032;6.998;2023-05-07T08:08:04;58.99;42.65;68.62;;
49568;Laerm;35474;51.032;6.998;2023-05-07T08:10:32;59.34;43.24;76.41;;
49568;Laerm;35474;51.032;6.998;2023-05-07T08:13:01;62.82;44.39;77.38;;
49568;Laerm;35474;51.032;6.998;2023-05-07T08:15:30;62.26;46.64;86.49;;
49568;Laerm;35474;51.032;6.998;2023-05-07T08:17:58;62.65;47.50;77.20;;
49568;Laerm;35474;51.032;6.998;2023-05-07T08:20:26;61.42;43.14;73.51;;
49568;Laerm;35474;51.032;6.998;2023-05-07T08:22:52;62.59;45.72;73.12;;
49568;Laerm;35474;51.032;6.998;2023-05-07T08:25:19;60.28;42.59;73.63;;
49568;Laerm;35474;51.032;6.998;2023-05-07T08:27:46;62.51;44.83;70.28;;
49568;Laerm;35474;51.032;6.998;2023-05-07T08:30:13;60.19;43.34;71.98;;
49568;Laerm;35474;51.032;6.998;2023-05-07T08:32:40;61.85;44.87;74.00;;
49568;Laerm;35474;51.032;6.998;2023-05-07T08:35:07;61.43;44.15;74.80;;
49568;Laerm;35474;51.032;6.998;2023-05-07T08:37:33;63.63;43.77;75.16;;
49568;Laerm;35474;51.032;6.998;2023-05-07T08:40:00;63.06;54.18;73.77;;
49568;Laerm;35474;51.032;6.998;2023-05-07T08:42:27;63.20;47.28;70.74;;
49568;Laerm;35474;51.032;6.998;2023-05-07T08:44:57;65.72;47.57;76.43;;
49568;Laerm;35474;51.032;6.998;2023-05-07T08:47:29;62.27;46.28;77.21;;
49568;Laerm;35474;51.032;6.998;2023-05-07T08:50:00;63.73;45.27;71.41;;
49568;Laerm;35474;51.032;6.998;2023-05-07T08:52:27;62.22;42.59;75.53;;
49568;Laerm;35474;51.032;6.998;2023-05-07T08:54:54;61.15;44.54;72.15;;
49568;Laerm;35474;51.032;6.998;2023-05-07T08:57:20;60.59;42.71;69.70;;
49568;Laerm;35474;51.032;6.998;2023-05-07T08:59:48;62.39;44.87;73.26;;
49568;Laerm;35474;51.032;6.998;2023-05-07T09:02:14;64.08;51.75;70.27;;
49568;Laerm;35474;51.032;6.998;2023-05-07T09:04:42;63.02;53.03;69.96;;
49568;Laerm;35474;51.032;6.998;2023-05-07T09:07:09;62.78;48.13;70.39;;
49568;Laerm;35474;51.032;6.998;2023-05-07T09:09:35;62.88;46.97;71.01;;
49568;Laerm;35474;51.032;6.998;2023-05-07T09:12:03;60.28;43.04;69.87;;
49568;Laerm;35474;51.032;6.998;2023-05-07T09:14:30;62.29;43.58;71.65;;
49568;Laerm;35474;51.032;6.998;2023-05-07T09:16:57;63.28;44.27;77.20;;
49568;Laerm;35474;51.032;6.998;2023-05-07T09:19:24;62.96;43.81;71.77;;
49568;Laerm;35474;51.032;6.998;2023-05-07T09:22:01;63.03;42.29;76.36;;
49568;Laerm;35474;51.032;6.998;2023-05-07T09:24:29;62.57;44.58;77.43;;
49568;Laerm;35474;51.032;6.998;2023-05-07T09:27:04;63.48;47.67;70.54;;
49568;Laerm;35474;51.032;6.998;2023-05-07T09:29:31;63.52;46.28;73.47;;
49568;Laerm;35474;51.032;6.998;2023-05-07T09:32:07;61.31;43.24;73.92;;
49568;Laerm;35474;51.032;6.998;2023-05-07T09:34:34;62.28;42.30;73.51;;
49568;Laerm;35474;51.032;6.998;2023-05-07T09:37:05;61.82;39.34;74.04;;
49568;Laerm;35474;51.032;6.998;2023-05-07T09:39:42;61.80;42.41;75.58;;
49568;Laerm;35474;51.032;6.998;2023-05-07T09:42:09;61.92;43.19;71.16;;
49568;Laerm;35474;51.032;6.998;2023-05-07T09:44:38;61.09;45.39;71.73;;
49568;Laerm;35474;51.032;6.998;2023-05-07T09:47:06;60.92;43.14;68.35;;
49568;Laerm;35474;51.032;6.998;2023-05-07T09:49:37;61.92;43.63;69.94;;
49568;Laerm;35474;51.032;6.998;2023-05-07T09:52:05;62.97;45.54;75.84;;
49568;Laerm;35474;51.032;6.998;2023-05-07T09:54:33;66.01;54.78;77.58;;
49568;Laerm;35474;51.032;6.998;2023-05-07T09:57:01;61.73;43.72;70.63;;
49568;Laerm;35474;51.032;6.998;2023-05-07T09:59:31;63.33;46.02;76.31;;
49568;Laerm;35474;51.032;6.998;2023-05-07T10:01:59;61.29;42.59;83.23;;
49568;Laerm;35474;51.032;6.998;2023-05-07T10:04:31;62.14;45.54;79.77;;
49568;Laerm;35474;51.032;6.998;2023-05-07T10:06:58;63.97;42.88;76.55;;
49568;Laerm;35474;51.032;6.998;2023-05-07T10:09:26;60.31;43.04;72.67;;
49568;Laerm;35474;51.032;6.998;2023-05-07T10:11:53;61.92;44.47;71.15;;
49568;Laerm;35474;51.032;6.998;2023-05-07T10:14:21;62.90;42.98;77.73;;
49568;Laerm;35474;51.032;6.998;2023-05-07T10:16:48;66.64;47.42;80.74;;
49568;Laerm;35474;51.032;6.998;2023-05-07T10:19:14;63.43;43.72;77.50;;
49568;Laerm;35474;51.032;6.998;2023-05-07T10:21:50;64.06;48.80;72.48;;
49568;Laerm;35474;51.032;6.998;2023-05-07T10:24:30;62.70;42.47;73.46;;
49568;Laerm;35474;51.032;6.998;2023-05-07T10:26:59;62.28;46.61;71.62;;
49568;Laerm;35474;51.032;6.998;2023-05-07T10:34:28;64.94;48.03;81.11;;
49568;Laerm;35474;51.032;6.998;2023-05-07T10:36:56;63.85;47.04;72.69;;
49568;Laerm;35474;51.032;6.998;2023-05-07T10:39:23;64.77;48.87;79.60;;
49568;Laerm;35474;51.032;6.998;2023-05-07T10:41:50;62.58;44.15;72.84;;
49568;Laerm;35474;51.032;6.998;2023-05-07T10:47:26;64.32;42.65;82.12;;
49568;Laerm;35474;51.032;6.998;2023-05-07T10:52:32;67.31;50.99;85.05;;
49568;Laerm;35474;51.032;6.998;2023-05-07T10:55:19;64.95;49.10;88.87;;
49568;Laerm;35474;51.032;6.998;2023-05-07T10:57:47;62.15;45.63;80.20;;
49568;Laerm;35474;51.032;6.998;2023-05-07T11:03:04;62.05;42.16;74.84;;
49568;Laerm;35474;51.032;6.998;2023-05-07T11:05:33;59.45;41.14;68.03;;
49568;Laerm;35474;51.032;6.998;2023-05-07T11:08:04;62.14;42.88;69.80;;
49568;Laerm;35474;51.032;6.998;2023-05-07T11:10:53;61.57;43.58;70.17;;
49568;Laerm;35474;51.032;6.998;2023-05-07T11:16:22;62.20;44.27;75.38;;
49568;Laerm;35474;51.032;6.998;2023-05-07T11:18:53;63.07;46.78;73.15;;
49568;Laerm;35474;51.032;6.998;2023-05-07T11:21:36;63.00;49.14;70.38;;
49568;Laerm;35474;51.032;6.998;2023-05-07T11:24:05;63.42;43.77;73.85;;
49568;Laerm;35474;51.032;6.998;2023-05-07T11:26:52;62.49;43.19;73.22;;
49568;Laerm;35474;51.032;6.998;2023-05-07T11:29:22;60.45;42.59;72.07;;
49568;Laerm;35474;51.032;6.998;2023-05-07T11:31:53;61.20;42.93;68.78;;
49568;Laerm;35474;51.032;6.998;2023-05-07T11:34:24;60.52;43.49;69.75;;
49568;Laerm;35474;51.032;6.998;2023-05-07T11:36:52;63.92;47.38;72.00;;
49568;Laerm;35474;51.032;6.998;2023-05-07T11:39:31;62.15;48.28;73.55;;
49568;Laerm;35474;51.032;6.998;2023-05-07T11:42:00;62.26;43.19;68.83;;
49568;Laerm;35474;51.032;6.998;2023-05-07T11:44:43;63.30;49.15;71.32;;
49568;Laerm;35474;51.032;6.998;2023-05-07T11:47:10;62.27;42.65;73.28;;
49568;Laerm;35474;51.032;6.998;2023-05-07T11:49:37;62.83;44.19;72.12;;
49568;Laerm;35474;51.032;6.998;2023-05-07T11:52:04;64.03;44.07;74.63;;
49568;Laerm;35474;51.032;6.998;2023-05-07T11:54:36;62.11;42.71;69.62;;
49568;Laerm;35474;51.032;6.998;2023-05-07T11:57:03;64.49;49.87;71.98;;
49568;Laerm;35474;51.032;6.998;2023-05-07T11:59:30;63.48;46.02;71.95;;
49568;Laerm;35474;51.032;6.998;2023-05-07T12:01:57;62.74;42.09;76.07;;
49568;Laerm;35474;51.032;6.998;2023-05-07T12:04:25;65.22;44.58;82.28;;
49568;Laerm;35474;51.032;6.998;2023-05-07T12:06:55;64.59;51.62;72.65;;
49568;Laerm;35474;51.032;6.998;2023-05-07T12:09:22;63.67;44.39;72.13;;
49568;Laerm;35474;51.032;6.998;2023-05-07T12:11:48;63.38;45.30;70.86;;
49568;Laerm;35474;51.032;6.998;2023-05-07T12:14:15;63.39;46.07;70.32;;
49568;Laerm;35474;51.032;6.998;2023-05-07T12:16:45;62.85;43.68;73.64;;
49568;Laerm;35474;51.032;6.998;2023-05-07T12:19:14;64.52;49.12;85.97;;
49568;Laerm;35474;51.032;6.998;2023-05-07T12:21:41;62.92;43.29;76.51;;
49568;Laerm;35474;51.032;6.998;2023-05-07T12:24:08;64.08;46.15;72.04;;
49568;Laerm;35474;51.032;6.998;2023-05-07T12:26:38;63.41;43.77;72.08;;
49568;Laerm;35474;51.032;6.998;2023-05-07T12:29:05;63.39;48.38;71.42;;
49568;Laerm;35474;51.032;6.998;2023-05-07T12:31:32;64.06;46.58;76.07;;
49568;Laerm;35474;51.032;6.998;2023-05-07T12:33:59;62.41;44.58;70.51;;
49568;Laerm;35474;51.032;6.998;2023-05-07T12:36:36;63.87;49.47;71.24;;
49568;Laerm;35474;51.032;6.998;2023-05-07T12:39:05;63.82;47.86;73.31;;
49568;Laerm;35474;51.032;6.998;2023-05-07T12:41:36;63.07;44.51;73.82;;
49568;Laerm;35474;51.032;6.998;2023-05-07T12:44:04;70.68;41.61;94.91;;
49568;Laerm;35474;51.032;6.998;2023-05-07T12:46:31;61.25;43.04;71.33;;
49568;Laerm;35474;51.032;6.998;2023-05-07T12:48:58;64.08;52.08;71.11;;
49568;Laerm;35474;51.032;6.998;2023-05-07T12:51:25;63.15;46.57;71.02;;
49568;Laerm;35474;51.032;6.998;2023-05-07T12:53:55;62.72;42.09;72.25;;
49568;Laerm;35474;51.032;6.998;2023-05-07T12:56:22;62.38;43.81;73.96;;
49568;Laerm;35474;51.032;6.998;2023-05-07T12:58:49;62.63;47.65;71.69;;
49568;Laerm;35474;51.032;6.998;2023-05-07T13:01:16;62.71;44.62;72.58;;
49568;Laerm;35474;51.032;6.998;2023-05-07T13:03:48;63.23;46.82;73.15;;
49568;Laerm;35474;51.032;6.998;2023-05-07T13:06:16;63.04;44.19;74.83;;
49568;Laerm;35474;51.032;6.998;2023-05-07T13:08:43;64.22;42.53;73.38;;
49568;Laerm;35474;51.032;6.998;2023-05-07T13:11:11;61.25;43.34;72.59;;
49568;Laerm;35474;51.032;6.998;2023-05-07T13:13:39;62.73;44.62;69.41;;
49568;Laerm;35474;51.032;6.998;2023-05-07T13:16:08;61.55;43.19;70.53;;
49568;Laerm;35474;51.032;6.998;2023-05-07T13:18:35;61.57;43.34;70.94;;
49568;Laerm;35474;51.032;6.998;2023-05-07T13:21:02;65.20;51.87;75.64;;
49568;Laerm;35474;51.032;6.998;2023-05-07T13:23:29;63.01;44.15;70.13;;
49568;Laerm;35474;51.032;6.998;2023-05-07T13:25:56;61.85;42.41;71.07;;
49568;Laerm;35474;51.032;6.998;2023-05-07T13:28:24;62.12;44.34;81.34;;
49568;Laerm;35474;51.032;6.998;2023-05-07T13:30:51;63.40;49.20;71.83;;
49568;Laerm;35474;51.032;6.998;2023-05-07T13:33:21;63.96;44.39;72.32;;
49568;Laerm;35474;51.032;6.998;2023-05-07T13:35:47;62.90;44.23;72.38;;
49568;Laerm;35474;51.032;6.998;2023-05-07T13:38:14;62.54;43.77;70.92;;
49568;Laerm;35474;51.032;6.998;2023-05-07T13:40:42;63.92;42.29;72.98;;
49568;Laerm;35474;51.032;6.998;2023-05-07T13:43:08;72.75;45.30;96.51;;
49568;Laerm;35474;51.032;6.998;2023-05-07T13:45:35;62.53;47.65;71.64;;
49568;Laerm;35474;51.032;6.998;2023-05-07T13:48:02;63.52;52.06;71.92;;
49568;Laerm;35474;51.032;6.998;2023-05-07T13:50:29;63.62;51.52;72.60;;
49568;Laerm;35474;51.032;6.998;2023-05-07T13:52:56;64.18;44.58;72.38;;
49568;Laerm;35474;51.032;6.998;2023-05-07T13:55:23;62.64;47.84;73.93;;
49568;Laerm;35474;51.032;6.998;2023-05-07T13:57:57;64.21;46.15;73.96;;
49568;Laerm;35474;51.032;6.998;2023-05-07T14:00:25;68.66;50.98;88.28;;
49568;Laerm;35474;51.032;6.998;2023-05-07T14:02:53;68.88;46.05;91.44;;
49568;Laerm;35474;51.032;6.998;2023-05-07T14:05:20;66.15;50.67;73.90;;
49568;Laerm;35474;51.032;6.998;2023-05-07T14:07:47;65.11;47.46;74.48;;
49568;Laerm;35474;51.032;6.998;2023-05-07T14:10:15;65.20;46.23;75.75;;